Time;durP1;ratioP1;P1;durP2;ratioP2;P2;SDS_P1;SDS_P2;PMS_P1;PMS_P2;Temp;Humidity;BMP_temperature;BMP_pressure;BME280_temperature;BME280_humidity;BME280_pressure;Samples;Min_cycle;Max_cycle;Signal;HPM_P1;HPM_P2
2023/07/06 00:00:53;;;;;;;;;;;23.90;47.30;;;;;;5020866;28;20081;-63
2023/07/06 00:03:20;;;;;;;1.70;1.10;;;23.80;47.30;;;;;;5039756;28;20036;-62
2023/07/06 00:05:46;;;;;;;1.90;1.25;;;23.80;47.30;;;;;;5018275;28;20136;-62
2023/07/06 00:08:13;;;;;;;2.17;1.30;;;23.80;47.30;;;;;;5042856;28;20029;-59
2023/07/06 00:10:41;;;;;;;1.73;1.10;;;23.80;47.30;;;;;;5020674;28;20482;-60
2023/07/06 00:13:08;;;;;;;1.08;0.90;;;23.80;47.40;;;;;;5039593;28;20116;-60
2023/07/06 00:15:34;;;;;;;1.38;1.17;;;23.80;47.40;;;;;;5043177;28;20036;-63
2023/07/06 00:18:04;;;;;;;1.30;1.10;;;23.80;47.40;;;;;;5041564;28;20036;-63
2023/07/06 00:20:37;;;;;;;1.58;1.10;;;23.80;47.40;;;;;;5020588;28;20025;-62
2023/07/06 00:23:10;;;;;;;2.17;1.20;;;23.80;47.50;;;;;;5022927;28;20440;-60
2023/07/06 00:25:37;;;;;;;2.22;1.23;;;23.80;47.50;;;;;;5045284;28;20151;-63
2023/07/06 00:28:04;;;;;;;2.10;1.38;;;23.80;47.50;;;;;;5043633;28;20029;-60
2023/07/06 00:33:15;;;;;;;1.85;1.05;;;23.80;47.50;;;;;;5014952;28;20040;-65
2023/07/06 00:35:41;;;;;;;1.30;1.05;;;23.80;47.60;;;;;;5046044;28;20387;-61
2023/07/06 00:38:20;;;;;;;1.35;0.90;;;23.70;47.50;;;;;;5043633;28;20029;-61
2023/07/06 00:40:56;;;;;;;1.75;1.10;;;23.80;47.60;;;;;;5042107;28;20033;-61
2023/07/06 00:43:46;;;;;;;1.42;1.02;;;23.70;47.60;;;;;;5017812;28;20096;-61
2023/07/06 00:46:12;;;;;;;1.45;1.00;;;23.70;47.60;;;;;;5020876;28;20364;-62
2023/07/06 00:48:44;;;;;;;2.45;1.30;;;23.70;47.70;;;;;;5022062;28;20113;-60
2023/07/06 00:51:39;;;;;;;1.48;1.00;;;23.70;47.70;;;;;;5041547;28;20041;-61
2023/07/06 00:54:12;;;;;;;2.22;1.20;;;23.70;47.70;;;;;;5038335;28;20144;-61
2023/07/06 00:56:41;;;;;;;1.75;1.15;;;23.70;47.70;;;;;;5042653;28;20055;-61
2023/07/06 00:59:11;;;;;;;1.50;1.20;;;23.70;47.70;;;;;;5039314;28;20047;-63
2023/07/06 01:01:41;;;;;;;1.85;1.23;;;23.70;47.70;;;;;;5017078;28;20021;-61
2023/07/06 01:04:13;;;;;;;1.58;0.95;;;23.70;47.70;;;;;;5020863;28;20044;-62
2023/07/06 01:06:47;;;;;;;1.83;1.20;;;23.70;47.70;;;;;;5046099;28;20056;-59
2023/07/06 01:09:15;;;;;;;1.48;1.08;;;23.70;47.80;;;;;;5022053;28;20033;-61
2023/07/06 01:11:41;;;;;;;1.52;1.20;;;23.70;47.80;;;;;;5025477;28;20094;-64
2023/07/06 01:14:12;;;;;;;1.55;1.08;;;23.70;47.90;;;;;;5039447;28;20427;-62
2023/07/06 01:16:57;;;;;;;2.00;1.20;;;23.70;47.90;;;;;;5018995;28;20044;-60
2023/07/06 01:19:41;;;;;;;;;;;23.70;47.90;;;;;;5044206;28;20034;-61
2023/07/06 01:22:35;;;;;;;2.67;1.35;;;23.60;47.80;;;;;;5043342;28;21625;-61
2023/07/06 01:25:28;;;;;;;1.00;0.90;;;23.60;47.80;;;;;;5043918;28;20033;-59
2023/07/06 01:28:05;;;;;;;1.95;1.20;;;23.60;47.80;;;;;;5027214;28;20123;-63
2023/07/06 01:30:33;;;;;;;3.25;1.52;;;23.60;47.90;;;;;;5022238;28;20433;-61
2023/07/06 01:33:07;;;;;;;1.67;1.30;;;23.60;47.90;;;;;;5027156;28;20393;-59
2023/07/06 01:36:18;;;;;;;2.60;1.17;;;23.60;47.90;;;;;;5021857;28;20030;-62
2023/07/06 01:38:48;;;;;;;3.90;1.05;;;23.60;48.00;;;;;;4961524;28;20347;-60
2023/07/06 01:41:24;;;;;;;1.52;0.98;;;23.60;48.00;;;;;;5019221;28;20400;-61
2023/07/06 01:43:51;;;;;;;1.40;0.90;;;23.60;48.10;;;;;;5004299;28;20131;-61
2023/07/06 01:46:19;;;;;;;1.25;0.90;;;23.60;48.10;;;;;;5027450;28;20075;-61
2023/07/06 01:48:45;;;;;;;1.52;0.90;;;23.60;48.10;;;;;;5022597;28;20158;-62
2023/07/06 01:51:21;;;;;;;1.67;0.98;;;23.60;48.10;;;;;;5027921;28;20116;-64
2023/07/06 01:53:56;;;;;;;1.40;1.10;;;23.60;48.10;;;;;;5011851;28;20137;-59
2023/07/06 01:56:48;;;;;;;1.58;1.00;;;23.60;48.10;;;;;;5020724;28;20026;-62
2023/07/06 01:59:19;;;;;;;2.13;1.00;;;23.60;48.10;;;;;;5011449;28;20037;-62
2023/07/06 02:01:59;;;;;;;2.20;1.20;;;23.60;48.10;;;;;;5019135;28;20452;-61
2023/07/06 02:04:31;;;;;;;2.38;1.15;;;23.60;48.10;;;;;;5021146;28;20045;-63
2023/07/06 02:07:02;;;;;;;1.80;1.02;;;23.50;48.10;;;;;;5028100;28;20523;-62
2023/07/06 02:09:28;;;;;;;2.10;1.08;;;23.50;48.10;;;;;;5030692;28;20055;-62
2023/07/06 02:11:54;;;;;;;3.35;1.08;;;23.50;48.10;;;;;;5031270;28;20155;-60
2023/07/06 02:14:21;;;;;;;2.13;1.00;;;23.50;48.10;;;;;;5030010;28;20152;-59
2023/07/06 02:16:50;;;;;;;1.98;1.10;;;23.50;48.10;;;;;;5032748;28;20037;-60
2023/07/06 02:19:23;;;;;;;2.33;1.05;;;23.50;48.10;;;;;;5032850;28;20064;-59
2023/07/06 02:21:50;;;;;;;2.92;1.40;;;23.50;48.10;;;;;;5031997;28;20056;-61
2023/07/06 02:24:17;;;;;;;1.98;1.17;;;23.50;48.10;;;;;;5028344;28;20029;-61
2023/07/06 02:26:44;;;;;;;2.25;1.33;;;23.50;48.10;;;;;;5026692;28;20070;-61
2023/07/06 02:29:11;;;;;;;1.73;1.20;;;23.50;48.20;;;;;;5024012;28;20049;-62
2023/07/06 02:31:37;;;;;;;2.63;1.33;;;23.50;48.20;;;;;;5028696;28;20033;-59
2023/07/06 02:34:03;;;;;;;2.92;1.10;;;23.50;48.20;;;;;;5021099;28;20108;-64
2023/07/06 02:36:29;;;;;;;2.40;1.40;;;23.50;48.20;;;;;;5022915;28;20069;-63
2023/07/06 02:38:56;;;;;;;1.92;1.17;;;23.50;48.20;;;;;;5018584;28;20408;-62
2023/07/06 02:41:22;;;;;;;2.38;1.10;;;23.50;48.20;;;;;;5043508;28;20025;-59
2023/07/06 02:43:48;;;;;;;2.20;1.08;;;23.50;48.30;;;;;;5019988;28;20365;-58
2023/07/06 02:46:19;;;;;;;3.47;1.13;;;23.50;48.30;;;;;;5031631;28;20033;-61
2023/07/06 02:48:50;;;;;;;2.38;1.15;;;23.50;48.20;;;;;;5036485;28;20112;-61
2023/07/06 02:51:16;;;;;;;1.88;1.25;;;23.40;48.20;;;;;;5021164;28;20117;-59
2023/07/06 02:53:42;;;;;;;1.88;1.25;;;23.40;48.20;;;;;;5016827;28;20128;-62
2023/07/06 02:56:09;;;;;;;3.60;1.33;;;23.50;48.30;;;;;;5018135;28;20167;-61
2023/07/06 02:58:34;;;;;;;1.90;1.10;;;23.40;48.20;;;;;;5036860;28;20122;-60
2023/07/06 03:01:01;;;;;;;1.95;1.05;;;23.40;48.20;;;;;;5016026;28;20120;-64
2023/07/06 03:03:27;;;;;;;1.50;1.00;;;23.40;48.30;;;;;;5013331;28;20032;-61
2023/07/06 03:05:53;;;;;;;1.45;0.93;;;23.50;48.30;;;;;;5043629;28;20040;-59
2023/07/06 03:08:20;;;;;;;1.58;1.02;;;23.40;48.30;;;;;;5025924;28;20126;-61
2023/07/06 03:10:47;;;;;;;2.03;1.10;;;23.40;48.30;;;;;;5027877;28;20073;-60
2023/07/06 03:13:14;;;;;;;2.15;1.10;;;23.40;48.30;;;;;;5025663;28;20025;-62
2023/07/06 03:15:41;;;;;;;2.60;1.27;;;23.40;48.30;;;;;;5042407;28;20112;-61
2023/07/06 03:18:08;;;;;;;1.73;1.10;;;23.40;48.30;;;;;;5044554;28;20021;-60
2023/07/06 03:20:39;;;;;;;2.53;1.08;;;23.40;48.30;;;;;;5021767;28;20037;-60
2023/07/06 03:23:05;;;;;;;2.42;1.25;;;23.40;48.30;;;;;;5020750;28;20038;-61
2023/07/06 03:25:30;;;;;;;2.03;1.30;;;23.40;48.30;;;;;;5019598;28;20447;-62
2023/07/06 03:27:57;;;;;;;2.67;1.10;;;23.40;48.20;;;;;;5047126;28;20062;-62
2023/07/06 03:30:27;;;;;;;1.67;1.02;;;23.40;48.20;;;;;;5017695;28;20021;-61
2023/07/06 03:32:54;;;;;;;1.60;1.00;;;23.40;48.20;;;;;;4997285;28;20090;-62
2023/07/06 03:35:22;;;;;;;3.63;1.13;;;23.40;48.20;;;;;;5044460;28;20382;-60
2023/07/06 03:37:48;;;;;;;1.48;0.88;;;23.40;48.20;;;;;;5044380;28;20175;-60
2023/07/06 03:40:14;;;;;;;1.73;0.98;;;23.40;48.20;;;;;;5042120;28;20367;-57
2023/07/06 03:42:45;;;;;;;2.50;1.20;;;23.40;48.20;;;;;;5044670;28;20037;-62
2023/07/06 03:45:14;;;;;;;1.73;1.13;;;23.30;48.10;;;;;;5024198;28;20064;-60
2023/07/06 03:47:42;;;;;;;2.63;1.23;;;23.40;48.20;;;;;;5041193;28;20104;-62
2023/07/06 03:50:09;;;;;;;2.15;1.15;;;23.30;48.10;;;;;;5018901;28;20032;-60
2023/07/06 03:52:37;;;;;;;1.73;1.00;;;23.30;48.10;;;;;;5050673;28;20036;-62
2023/07/06 03:55:12;;;;;;;2.13;1.10;;;23.40;48.10;;;;;;5050317;28;20033;-59
2023/07/06 03:57:39;;;;;;;1.85;1.20;;;23.30;48.10;;;;;;5047228;28;20037;-61
2023/07/06 04:00:13;;;;;;;1.30;0.93;;;23.30;48.10;;;;;;5047069;28;20099;-61
2023/07/06 04:02:40;;;;;;;2.30;1.17;;;23.30;48.10;;;;;;5045141;28;20037;-61
2023/07/06 04:05:08;;;;;;;0.90;0.80;;;23.30;48.00;;;;;;5012847;28;20495;-61
2023/07/06 04:07:34;;;;;;;1.95;1.00;;;23.30;48.00;;;;;;5031021;28;20081;-58
2023/07/06 04:10:00;;;;;;;1.67;1.23;;;23.30;48.00;;;;;;5030056;28;20030;-59
2023/07/06 04:12:26;;;;;;;2.65;1.23;;;23.30;48.00;;;;;;5030270;28;20029;-63
2023/07/06 04:14:54;;;;;;;1.77;1.05;;;23.30;48.00;;;;;;5047959;28;20093;-59
2023/07/06 04:17:20;;;;;;;2.60;0.93;;;23.30;48.00;;;;;;5050185;28;20100;-64
2023/07/06 04:19:46;;;;;;;2.08;1.02;;;23.30;48.00;;;;;;5043892;28;20468;-61
2023/07/06 04:22:12;;;;;;;4.50;1.10;;;23.30;48.00;;;;;;5041587;28;20075;-63
2023/07/06 04:24:38;;;;;;;1.23;0.85;;;23.30;48.00;;;;;;5044080;28;20384;-61
2023/07/06 04:27:05;;;;;;;3.15;1.00;;;23.30;48.00;;;;;;5042696;28;20179;-60
2023/07/06 04:29:31;;;;;;;2.42;1.23;;;23.30;48.00;;;;;;5043511;28;20115;-62
2023/07/06 04:31:57;;;;;;;1.98;0.93;;;23.30;48.00;;;;;;5037344;28;20128;-60
2023/07/06 04:34:24;;;;;;;2.00;1.20;;;23.30;47.90;;;;;;5043307;28;20033;-63
2023/07/06 04:36:50;;;;;;;3.33;1.00;;;23.30;47.90;;;;;;5044831;28;20313;-63
2023/07/06 04:39:16;;;;;;;1.58;0.90;;;23.30;47.90;;;;;;5042284;28;20044;-62
2023/07/06 04:41:43;;;;;;;1.42;1.00;;;23.30;47.90;;;;;;5008539;28;20117;-62
2023/07/06 04:44:10;;;;;;;2.75;1.20;;;23.30;47.90;;;;;;5043367;28;20077;-60
2023/07/06 04:46:38;;;;;;;1.88;1.15;;;23.30;47.90;;;;;;5044512;28;20616;-59
2023/07/06 04:49:05;;;;;;;2.22;0.98;;;23.30;47.90;;;;;;5042838;28;20036;-60
2023/07/06 04:51:35;;;;;;;1.83;0.93;;;23.30;47.90;;;;;;5043108;28;20025;-62
2023/07/06 04:54:02;;;;;;;3.35;1.25;;;23.30;47.90;;;;;;5040741;28;20109;-62
2023/07/06 04:56:28;;;;;;;1.73;0.90;;;23.30;47.90;;;;;;5024139;28;20021;-62
2023/07/06 04:58:56;;;;;;;1.70;1.15;;;23.30;47.90;;;;;;5043421;28;20056;-63
2023/07/06 05:01:24;;;;;;;2.35;0.98;;;23.30;48.50;;;;;;5040984;28;20057;-60
2023/07/06 05:03:52;;;;;;;2.28;1.10;;;23.30;47.90;;;;;;5041335;28;20069;-63
2023/07/06 05:06:19;;;;;;;1.38;1.02;;;23.30;47.90;;;;;;5044365;28;20025;-59
2023/07/06 05:08:46;;;;;;;2.47;1.20;;;23.30;47.90;;;;;;5046922;28;20286;-61
2023/07/06 05:11:12;;;;;;;2.05;1.10;;;23.30;47.90;;;;;;5026768;28;20040;-64
2023/07/06 05:13:38;;;;;;;2.22;1.20;;;23.30;47.90;;;;;;5047594;28;20451;-62
2023/07/06 05:16:04;;;;;;;2.70;0.98;;;23.30;47.90;;;;;;5044472;28;20033;-59
2023/07/06 05:18:31;;;;;;;1.20;0.80;;;23.30;47.90;;;;;;5047786;28;20391;-60
2023/07/06 05:20:57;;;;;;;2.15;1.20;;;23.30;47.90;;;;;;5048378;28;20036;-60
2023/07/06 05:23:28;;;;;;;2.03;1.08;;;23.30;47.90;;;;;;5043050;28;20041;-60
2023/07/06 05:26:03;;;;;;;1.88;0.80;;;23.30;48.00;;;;;;5046746;28;20041;-63
2023/07/06 05:28:31;;;;;;;1.50;0.93;;;23.30;47.90;;;;;;5047626;28;20115;-61
2023/07/06 05:30:57;;;;;;;2.83;1.02;;;23.30;47.90;;;;;;5047709;28;20029;-62
2023/07/06 05:33:24;;;;;;;1.88;1.20;;;23.20;47.90;;;;;;5041357;28;20029;-60
2023/07/06 05:35:50;;;;;;;1.77;1.10;;;23.30;47.90;;;;;;5041456;28;20086;-61
2023/07/06 05:38:16;;;;;;;2.22;1.30;;;23.30;47.90;;;;;;5043809;28;20037;-63
2023/07/06 05:40:43;;;;;;;2.85;1.00;;;23.30;48.00;;;;;;5033010;28;20580;-65
2023/07/06 05:43:10;;;;;;;2.83;1.27;;;23.30;48.00;;;;;;5046647;28;20041;-63
2023/07/06 05:45:37;;;;;;;3.10;1.15;;;23.30;48.00;;;;;;5043964;28;20049;-63
2023/07/06 05:48:03;;;;;;;2.22;1.13;;;23.30;48.00;;;;;;5046540;28;20080;-62
2023/07/06 05:50:29;;;;;;;2.25;1.20;;;23.30;48.10;;;;;;5047757;28;20458;-63
2023/07/06 05:52:55;;;;;;;2.63;1.30;;;23.30;48.10;;;;;;5044189;28;20033;-61
2023/07/06 05:55:21;;;;;;;2.20;0.80;;;23.30;48.10;;;;;;5048926;28;20025;-61
2023/07/06 05:57:47;;;;;;;1.95;1.20;;;23.30;48.10;;;;;;5046884;28;20181;-61
2023/07/06 06:00:15;;;;;;;3.10;1.20;;;23.30;48.10;;;;;;5048427;28;20037;-63
2023/07/06 06:02:44;;;;;;;2.67;1.02;;;23.30;48.10;;;;;;5042238;28;20040;-60
2023/07/06 06:05:13;;;;;;;1.60;1.10;;;23.30;48.10;;;;;;5044501;28;20037;-63
2023/07/06 06:07:43;;;;;;;2.65;1.25;;;23.30;48.10;;;;;;5044126;28;20108;-63
2023/07/06 06:10:10;;;;;;;2.85;1.30;;;23.30;48.10;;;;;;5044760;28;20335;-64
2023/07/06 06:12:37;;;;;;;4.20;1.45;;;23.40;48.10;;;;;;5043796;28;20090;-65
2023/07/06 06:15:04;;;;;;;2.42;1.17;;;23.30;48.10;;;;;;5045016;28;20116;-60
2023/07/06 06:17:30;;;;;;;2.80;1.30;;;23.40;48.20;;;;;;5045727;28;20044;-63
2023/07/06 06:19:56;;;;;;;2.53;1.27;;;23.40;48.20;;;;;;5048638;28;20151;-59
2023/07/06 06:22:22;;;;;;;3.03;1.58;;;23.40;48.20;;;;;;5045909;28;20285;-61
2023/07/06 06:24:48;;;;;;;3.85;1.65;;;23.40;48.20;;;;;;5046149;28;20153;-61
2023/07/06 06:27:16;;;;;;;2.97;1.45;;;23.40;48.30;;;;;;5044752;28;20086;-62
2023/07/06 06:29:43;;;;;;;3.10;1.55;;;23.40;48.30;;;;;;5043866;28;20025;-62
2023/07/06 06:32:10;;;;;;;4.72;1.83;;;23.40;48.30;;;;;;5046915;28;20025;-63
2023/07/06 06:34:36;;;;;;;2.92;1.58;;;23.40;48.40;;;;;;5046458;28;20125;-62
2023/07/06 06:37:04;;;;;;;2.97;1.65;;;23.40;48.40;;;;;;5041227;28;20024;-61
2023/07/06 06:39:34;;;;;;;2.22;1.40;;;23.40;48.40;;;;;;5036526;28;20025;-61
2023/07/06 06:42:02;;;;;;;3.05;1.60;;;23.40;48.40;;;;;;5014156;28;20165;-65
2023/07/06 06:44:30;;;;;;;2.58;1.33;;;23.40;48.40;;;;;;5002415;28;20090;-60
2023/07/06 06:46:58;;;;;;;3.33;1.42;;;23.40;48.40;;;;;;4995594;28;20042;-61
2023/07/06 06:49:25;;;;;;;4.05;1.55;;;23.40;48.50;;;;;;5004699;28;20137;-62
2023/07/06 06:51:51;;;;;;;4.35;1.70;;;23.50;48.50;;;;;;5004283;28;20030;-61
2023/07/06 06:54:17;;;;;;;3.30;1.92;;;23.50;48.50;;;;;;5001758;28;20117;-61
2023/07/06 06:56:43;;;;;;;3.08;1.50;;;23.50;48.60;;;;;;4995077;28;20044;-60
2023/07/06 06:59:12;;;;;;;3.63;1.70;;;23.50;48.60;;;;;;4995392;28;20180;-60
2023/07/06 07:01:41;;;;;;;2.60;1.45;;;23.50;48.60;;;;;;5010754;28;20042;-61
2023/07/06 07:04:10;;;;;;;3.72;1.75;;;23.50;48.60;;;;;;5010456;28;20391;-62
2023/07/06 07:06:38;;;;;;;2.78;1.90;;;23.50;48.60;;;;;;5000225;28;20093;-62
2023/07/06 07:09:09;;;;;;;5.43;1.95;;;23.50;48.60;;;;;;4992368;28;20108;-62
2023/07/06 07:11:36;;;;;;;4.13;1.80;;;23.50;48.60;;;;;;4992509;28;20109;-63
2023/07/06 07:14:02;;;;;;;2.85;1.60;;;23.50;48.70;;;;;;4994880;28;20315;-62
2023/07/06 07:16:29;;;;;;;2.95;1.70;;;23.50;48.70;;;;;;5005660;28;20034;-63
2023/07/06 07:18:55;;;;;;;2.72;1.80;;;23.50;48.70;;;;;;5009525;28;20303;-63
2023/07/06 07:21:21;;;;;;;3.97;2.05;;;23.50;48.70;;;;;;5012221;28;20137;-62
2023/07/06 07:23:49;;;;;;;3.95;2.10;;;23.60;48.80;;;;;;5011549;28;20524;-65
2023/07/06 07:26:22;;;;;;;3.22;1.77;;;23.60;48.80;;;;;;5011832;28;20072;-60
2023/07/06 07:28:50;;;;;;;2.50;1.70;;;23.60;48.80;;;;;;5010952;28;20410;-61
2023/07/06 07:31:17;;;;;;;3.33;2.28;;;23.60;48.90;;;;;;5004520;28;20033;-62
2023/07/06 07:33:46;;;;;;;3.22;1.75;;;23.60;48.90;;;;;;5011650;28;20045;-63
2023/07/06 07:36:16;;;;;;;2.83;1.90;;;23.60;48.90;;;;;;5010012;28;20530;-64
2023/07/06 07:38:44;;;;;;;3.35;1.77;;;23.60;48.90;;;;;;5010561;28;20045;-65
2023/07/06 07:41:10;;;;;;;2.75;1.75;;;23.70;49.00;;;;;;5011700;28;20026;-62
2023/07/06 07:43:41;;;;;;;4.47;2.00;;;23.60;48.90;;;;;;5014284;28;20026;-61
2023/07/06 07:46:10;;;;;;;3.53;1.65;;;23.70;49.00;;;;;;5047832;28;20069;-62
2023/07/06 07:48:45;;;;;;;3.03;1.90;;;23.70;49.00;;;;;;5050672;28;20421;-62
2023/07/06 07:51:12;;;;;;;;;;;23.70;49.60;;;;;;5051406;28;20029;-62
2023/07/06 07:53:39;;;;;;;3.95;2.08;;;23.60;49.00;;;;;;5049492;28;19913;-60
2023/07/06 07:56:06;;;;;;;2.95;1.60;;;23.70;49.00;;;;;;5038059;28;20471;-63
2023/07/06 07:58:33;;;;;;;3.00;1.77;;;23.70;49.10;;;;;;5037479;28;20037;-62
2023/07/06 08:01:01;;;;;;;4.28;2.13;;;23.70;49.10;;;;;;5020434;28;20029;-63
2023/07/06 08:03:27;;;;;;;3.33;2.10;;;23.70;49.00;;;;;;5025972;28;20083;-63
2023/07/06 08:05:59;;;;;;;4.97;1.90;;;23.70;49.00;;;;;;5039759;28;20045;-62
2023/07/06 08:08:25;;;;;;;2.63;1.58;;;23.70;49.00;;;;;;5024232;28;20098;-61
2023/07/06 08:10:56;;;;;;;2.97;1.98;;;23.80;49.10;;;;;;5038128;28;20064;-62
2023/07/06 08:13:22;;;;;;;2.70;1.90;;;23.70;49.00;;;;;;5036005;28;20100;-65
2023/07/06 08:15:49;;;;;;;4.15;1.75;;;23.70;49.00;;;;;;5049831;28;20036;-63
2023/07/06 08:18:15;;;;;;;3.63;2.05;;;23.80;49.00;;;;;;5042327;28;20022;-60
2023/07/06 08:20:47;;;;;;;4.25;1.92;;;23.80;49.00;;;;;;5041878;28;20178;-61
2023/07/06 08:23:16;;;;;;;2.38;1.73;;;23.80;49.00;;;;;;5026462;28;20057;-62
2023/07/06 08:25:42;;;;;;;4.55;2.20;;;23.80;48.90;;;;;;5040026;28;20051;-61
2023/07/06 08:28:10;;;;;;;5.00;2.17;;;23.80;48.90;;;;;;5044861;28;20410;-63
2023/07/06 08:30:40;;;;;;;4.22;2.20;;;23.80;48.90;;;;;;5050717;28;20029;-63
2023/07/06 08:33:07;;;;;;;3.75;2.13;;;23.80;48.80;;;;;;5032717;28;20440;-63
2023/07/06 08:35:33;;;;;;;3.85;2.17;;;23.80;48.80;;;;;;5050243;28;20033;-61
2023/07/06 08:38:04;;;;;;;3.42;2.03;;;23.80;48.80;;;;;;5049889;28;20463;-66
2023/07/06 08:40:31;;;;;;;3.78;1.90;;;23.90;48.80;;;;;;5046226;28;20036;-61
2023/07/06 08:43:00;;;;;;;4.90;1.98;;;23.90;48.80;;;;;;5045198;28;20057;-65
2023/07/06 08:45:58;;;;;;;3.83;2.13;;;23.90;48.80;;;;;;5020288;28;20140;-60
2023/07/06 08:48:26;;;;;;;3.95;1.90;;;23.90;48.70;;;;;;5038873;28;20033;-61
2023/07/06 08:50:59;;;;;;;3.63;2.05;;;23.90;48.70;;;;;;5047741;28;20104;-61
2023/07/06 08:53:34;;;;;;;4.37;2.20;;;23.90;48.70;;;;;;5039285;28;20045;-62
2023/07/06 08:56:04;;;;;;;2.85;1.70;;;23.90;48.60;;;;;;5050269;28;20279;-62
2023/07/06 08:58:33;;;;;;;3.63;2.33;;;24.00;48.70;;;;;;5050068;28;20029;-62
2023/07/06 09:01:11;;;;;;;3.35;2.20;;;24.00;48.70;;;;;;5049025;28;20052;-61
2023/07/06 09:03:49;;;;;;;2.85;1.80;;;24.00;48.60;;;;;;5049936;28;20052;-62
2023/07/06 09:06:19;;;;;;;4.30;2.13;;;24.00;48.60;;;;;;5032049;28;20317;-62
2023/07/06 09:08:46;;;;;;;4.57;2.28;;;24.00;48.60;;;;;;5031013;28;20071;-59
2023/07/06 09:11:13;;;;;;;3.85;1.80;;;24.00;48.50;;;;;;5050101;28;20025;-61
2023/07/06 09:13:46;;;;;;;4.25;2.38;;;24.00;48.40;;;;;;5046324;28;20129;-64
2023/07/06 09:16:15;;;;;;;3.38;2.17;;;24.00;48.40;;;;;;5029744;28;20037;-60
2023/07/06 09:18:42;;;;;;;4.00;2.17;;;24.00;48.40;;;;;;5045312;28;20036;-63
2023/07/06 09:21:08;;;;;;;2.97;1.98;;;24.10;48.30;;;;;;5047837;28;20141;-62
2023/07/06 09:23:34;;;;;;;3.75;2.10;;;24.10;48.30;;;;;;5039132;28;20157;-61
2023/07/06 09:26:06;;;;;;;2.20;1.98;;;24.10;48.20;;;;;;5049079;28;20068;-62
2023/07/06 09:28:32;;;;;;;3.75;2.00;;;24.10;48.10;;;;;;5040414;28;20431;-62
2023/07/06 09:31:19;;;;;;;4.20;2.10;;;24.10;48.20;;;;;;5048030;28;20462;-61
2023/07/06 09:33:49;;;;;;;3.20;1.83;;;24.10;48.10;;;;;;5045865;28;20033;-63
2023/07/06 09:36:22;;;;;;;3.15;1.85;;;24.10;48.10;;;;;;5031048;28;20423;-62
2023/07/06 09:38:48;;;;;;;3.65;1.90;;;24.10;48.00;;;;;;5048473;28;20032;-63
2023/07/06 09:41:27;;;;;;;4.30;2.40;;;24.10;47.90;;;;;;5048982;28;20033;-63
2023/07/06 09:43:59;;;;;;;2.75;2.10;;;24.10;47.90;;;;;;5030223;28;20034;-62
2023/07/06 09:46:31;;;;;;;3.30;2.10;;;24.10;47.90;;;;;;5030156;28;20033;-62
2023/07/06 09:48:57;;;;;;;4.15;2.20;;;24.10;47.90;;;;;;5030114;28;20030;-63
2023/07/06 09:51:43;;;;;;;3.97;2.00;;;24.20;48.00;;;;;;5031895;28;20045;-60
2023/07/06 09:55:05;;;;;;;3.42;2.10;;;24.20;47.90;;;;;;5030833;28;20037;-63
2023/07/06 09:57:35;;;;;;;2.60;2.00;;;24.20;47.90;;;;;;4945028;29;20101;-62
2023/07/06 10:00:03;;;;;;;4.18;2.15;;;24.20;47.90;;;;;;5049312;28;20081;-63
2023/07/06 10:03:00;;;;;;;3.38;2.10;;;24.20;48.50;;;;;;5052942;28;20063;-62
2023/07/06 10:06:17;;;;;;;3.38;2.00;;;24.20;47.80;;;;;;5052485;28;20040;-63
2023/07/06 10:09:05;;;;;;;2.83;1.70;;;24.20;47.70;;;;;;5019772;28;20449;-62
2023/07/06 10:11:36;;;;;;;3.10;1.75;;;24.30;47.70;;;;;;5033102;28;20037;-61
2023/07/06 10:14:28;;;;;;;3.30;1.70;;;24.30;47.70;;;;;;5034169;28;20025;-62
2023/07/06 10:17:17;;;;;;;2.60;1.70;;;24.30;47.60;;;;;;5039797;28;20109;-62
2023/07/06 10:19:57;;;;;;;3.70;2.38;;;24.30;47.60;;;;;;5052330;28;20036;-60
2023/07/06 10:22:35;;;;;;;3.38;2.10;;;24.30;47.70;;;;;;5046477;28;20029;-62
2023/07/06 10:25:33;;;;;;;3.30;1.80;;;24.30;47.70;;;;;;5051284;28;20445;-61
2023/07/06 10:28:23;;;;;;;3.22;2.03;;;24.30;47.70;;;;;;5052641;28;20425;-60
2023/07/06 10:30:52;;;;;;;3.35;1.95;;;24.30;47.60;;;;;;5051327;28;20028;-61
2023/07/06 10:33:31;;;;;;;2.63;1.73;;;24.30;47.60;;;;;;5036216;28;20402;-63
2023/07/06 10:35:58;;;;;;;2.97;1.63;;;24.30;47.50;;;;;;5035968;28;20064;-61
2023/07/06 10:38:25;;;;;;;2.28;1.77;;;24.30;47.50;;;;;;5014411;28;20068;-62
2023/07/06 10:41:12;;;;;;;3.80;2.25;;;24.40;47.50;;;;;;5044309;28;20036;-62
2023/07/06 10:43:40;;;;;;;3.10;1.90;;;24.30;47.40;;;;;;5045537;28;20033;-63
2023/07/06 10:46:36;;;;;;;3.65;1.80;;;24.30;47.40;;;;;;5046929;28;20052;-61
2023/07/06 10:49:21;;;;;;;4.82;1.90;;;24.40;47.30;;;;;;5027341;28;20419;-61
2023/07/06 10:51:50;;;;;;;3.33;1.90;;;24.40;47.20;;;;;;5041940;28;20136;-61
2023/07/06 10:54:25;;;;;;;3.30;1.63;;;24.40;47.20;;;;;;5043914;28;20044;-62
2023/07/06 10:57:10;;;;;;;3.65;2.08;;;24.40;47.10;;;;;;5042736;28;20074;-62
2023/07/06 10:59:44;;;;;;;3.20;1.95;;;24.50;47.00;;;;;;5044846;28;20060;-61
2023/07/06 11:02:40;;;;;;;2.92;1.40;;;24.40;46.90;;;;;;5044609;28;20025;-61
2023/07/06 11:05:17;;;;;;;3.30;1.92;;;24.40;46.80;;;;;;5040654;28;20113;-60
2023/07/06 11:07:52;;;;;;;2.10;1.52;;;24.40;46.90;;;;;;5042730;28;20100;-61
2023/07/06 11:10:28;;;;;;;2.47;1.83;;;24.50;47.00;;;;;;5040478;28;20373;-62
2023/07/06 11:13:06;;;;;;;3.80;1.80;;;24.50;47.00;;;;;;5043893;28;20407;-62
2023/07/06 11:15:48;;;;;;;2.78;1.70;;;24.50;47.00;;;;;;5033305;28;20116;-60
2023/07/06 11:18:39;;;;;;;2.60;1.90;;;24.50;47.00;;;;;;5033308;28;20081;-62
2023/07/06 11:21:14;;;;;;;3.70;1.55;;;24.50;47.10;;;;;;5017116;28;20075;-63
2023/07/06 11:23:57;;;;;;;3.13;1.50;;;24.60;47.10;;;;;;5041707;28;20099;-62
2023/07/06 11:26:47;;;;;;;3.58;1.88;;;24.60;47.00;;;;;;5044078;28;20315;-64
2023/07/06 11:29:14;;;;;;;3.47;1.75;;;24.60;46.90;;;;;;5039587;28;20367;-61
2023/07/06 11:31:39;;;;;;;2.20;1.52;;;24.60;46.80;;;;;;5036578;28;20041;-62
2023/07/06 11:34:21;;;;;;;3.40;1.98;;;24.60;46.60;;;;;;5021777;28;20112;-64
2023/07/06 11:37:00;;;;;;;2.83;1.42;;;24.70;46.50;;;;;;5039057;28;20337;-61
2023/07/06 11:40:00;;;;;;;2.78;1.80;;;24.70;46.40;;;;;;5041728;28;20488;-63
2023/07/06 11:43:02;;;;;;;3.25;1.33;;;24.70;46.20;;;;;;5017661;28;20080;-62
2023/07/06 11:45:58;;;;;;;2.88;1.60;;;24.70;46.10;;;;;;5043363;28;20095;-63
2023/07/06 11:48:51;;;;;;;2.35;1.30;;;24.70;46.10;;;;;;5044510;28;20128;-61
2023/07/06 11:51:21;;;;;;;2.72;1.58;;;24.70;46.00;;;;;;5022033;28;20060;-63
2023/07/06 11:56:50;;;;;;;2.53;1.50;;;24.80;45.90;;;;;;5039990;28;20091;-63
2023/07/06 11:59:37;;;;;;;2.55;1.58;;;24.70;45.60;;;;;;5031039;28;20038;-63
2023/07/06 12:02:20;;;;;;;2.15;1.40;;;24.80;45.50;;;;;;5031994;28;20417;-62
2023/07/06 12:04:46;;;;;;;1.70;1.40;;;24.80;45.40;;;;;;4996675;28;20038;-62
2023/07/06 12:07:26;;;;;;;2.45;1.40;;;24.80;45.30;;;;;;5035043;28;20131;-63
2023/07/06 12:09:52;;;;;;;3.15;1.50;;;24.80;45.30;;;;;;5045396;28;20090;-64
2023/07/06 12:12:23;;;;;;;2.55;1.38;;;24.80;45.40;;;;;;5041531;28;20036;-60
2023/07/06 12:14:54;;;;;;;2.20;1.30;;;24.80;45.50;;;;;;5028980;28;20444;-62
2023/07/06 12:17:22;;;;;;;2.55;1.38;;;24.90;45.40;;;;;;5050546;28;20447;-62
2023/07/06 12:19:55;;;;;;;4.03;2.10;;;24.90;45.30;;;;;;5033177;28;20037;-62
2023/07/06 12:22:21;;;;;;;3.00;1.60;;;24.90;45.10;;;;;;5050507;28;20037;-63
2023/07/06 12:24:51;;;;;;;5.35;1.40;;;24.90;45.00;;;;;;5032642;28;20037;-62
2023/07/06 12:27:18;;;;;;;2.72;1.17;;;24.90;44.90;;;;;;5041659;28;20801;-62
2023/07/06 12:29:45;;;;;;;2.97;1.23;;;24.90;44.70;;;;;;5021778;28;20044;-62
2023/07/06 12:32:16;;;;;;;3.20;1.60;;;24.90;44.70;;;;;;5028535;28;20029;-61
2023/07/06 12:34:47;;;;;;;1.90;1.35;;;24.90;44.60;;;;;;5045955;28;20104;-64
2023/07/06 12:37:14;;;;;;;3.17;1.73;;;24.90;44.70;;;;;;5041390;28;20101;-61
2023/07/06 12:39:45;;;;;;;2.28;1.52;;;24.90;44.70;;;;;;5047542;28;20440;-63
2023/07/06 12:42:13;;;;;;;4.28;1.75;;;24.90;44.70;;;;;;5043090;28;20037;-63
2023/07/06 12:44:44;;;;;;;2.60;1.27;;;24.80;44.60;;;;;;5044544;28;20388;-64
2023/07/06 12:47:37;;;;;;;2.65;1.50;;;24.90;44.60;;;;;;5022972;28;20017;-63
2023/07/06 12:50:05;;;;;;;2.85;1.20;;;24.90;44.60;;;;;;5030604;28;20037;-61
2023/07/06 12:52:33;;;;;;;2.50;1.30;;;24.90;44.90;;;;;;5049355;28;20124;-62
2023/07/06 12:55:02;;;;;;;1.83;1.00;;;24.90;44.50;;;;;;5048213;28;20039;-62
2023/07/06 12:57:35;;;;;;;2.83;1.50;;;24.90;44.50;;;;;;5031908;28;20062;-63
2023/07/06 13:00:13;;;;;;;2.63;1.20;;;24.90;44.50;;;;;;5014154;28;20034;-63
2023/07/06 13:02:42;;;;;;;2.22;1.20;;;24.90;44.50;;;;;;5044098;28;20077;-62
2023/07/06 13:05:26;;;;;;;1.90;1.08;;;24.80;44.50;;;;;;5047927;28;20106;-63
2023/07/06 13:07:53;;;;;;;2.13;1.10;;;24.80;44.50;;;;;;5048300;28;20104;-61
2023/07/06 13:10:22;;;;;;;3.38;1.65;;;24.80;44.60;;;;;;5049852;28;20399;-61
2023/07/06 13:12:54;;;;;;;3.95;1.30;;;24.80;44.70;;;;;;5037557;28;20109;-65
2023/07/06 13:15:36;;;;;;;3.75;1.50;;;24.80;44.80;;;;;;5032962;28;20160;-63